Time;durP1;ratioP1;P1;durP2;ratioP2;P2;SDS_P1;SDS_P2;PMS_P1;PMS_P2;Temp;Humidity;BMP_temperature;BMP_pressure;BME280_temperature;BME280_humidity;BME280_pressure;Samples;Min_cycle;Max_cycle;Signal;HPM_P1;HPM_P2
2023/05/05 00:01:13;;;;;;;5.43;3.60;;;9.20;99.90;;;;;;4151673;28;20021;-62
2023/05/05 00:03:14;;;;;;;5.57;3.30;;;9.20;99.90;;;;;;4161222;28;20029;-59
2023/05/05 00:05:15;;;;;;;8.03;3.80;;;9.10;99.90;;;;;;4161050;28;20091;-62
2023/05/05 00:07:16;;;;;;;6.30;3.90;;;9.00;99.90;;;;;;4159534;28;20429;-56
2023/05/05 00:09:17;;;;;;;3.23;2.50;;;9.00;99.90;;;;;;4144879;28;20041;-55
2023/05/05 00:11:18;;;;;;;5.30;3.37;;;8.90;99.90;;;;;;4159783;28;20033;-58
2023/05/05 00:13:20;;;;;;;4.60;3.13;;;8.80;99.90;;;;;;4145856;28;20042;-56
2023/05/05 00:15:21;;;;;;;3.47;2.80;;;8.70;99.90;;;;;;4144151;28;20038;-59
2023/05/05 00:17:22;;;;;;;4.17;2.30;;;8.60;99.90;;;;;;4144966;28;20091;-58
2023/05/05 00:19:24;;;;;;;2.30;1.97;;;8.50;99.90;;;;;;4144129;28;20034;-54
2023/05/05 00:21:26;;;;;;;2.57;2.20;;;8.40;99.90;;;;;;4145243;28;20552;-58
2023/05/05 00:23:27;;;;;;;2.23;1.97;;;8.30;99.90;;;;;;4143560;28;20045;-58
2023/05/05 00:25:28;;;;;;;3.23;2.10;;;8.20;99.90;;;;;;4145211;28;20030;-53
2023/05/05 00:27:30;;;;;;;3.30;2.37;;;8.30;99.90;;;;;;4144009;28;20037;-56
2023/05/05 00:29:31;;;;;;;2.37;1.90;;;8.30;99.90;;;;;;4144623;28;20058;-64
2023/05/05 00:31:32;;;;;;;4.00;2.43;;;8.30;99.90;;;;;;4143615;28;20092;-58
2023/05/05 00:33:33;;;;;;;2.13;1.93;;;8.40;99.90;;;;;;4145893;28;20021;-55
2023/05/05 00:35:34;;;;;;;4.83;2.70;;;8.50;99.90;;;;;;4143686;28;20034;-59
2023/05/05 00:37:36;;;;;;;2.70;2.47;;;8.50;99.90;;;;;;4144453;28;20486;-58
2023/05/05 00:39:37;;;;;;;4.30;2.40;;;8.50;99.90;;;;;;4144360;28;20540;-60
2023/05/05 00:41:39;;;;;;;5.20;2.70;;;8.50;99.90;;;;;;4144081;28;20088;-58
2023/05/05 00:43:40;;;;;;;4.20;3.03;;;8.60;99.90;;;;;;4146368;28;20106;-57
2023/05/05 00:45:46;;;;;;;4.53;3.23;;;8.60;99.90;;;;;;4146335;28;20096;-59
2023/05/05 00:47:50;;;;;;;4.47;3.10;;;8.60;99.90;;;;;;4147524;28;20486;-56
2023/05/05 00:49:51;;;;;;;6.20;3.53;;;8.50;99.90;;;;;;4146848;28;20089;-58
2023/05/05 00:51:52;;;;;;;3.97;3.27;;;8.50;99.90;;;;;;4149127;28;20091;-58
2023/05/05 00:53:53;;;;;;;3.70;3.30;;;8.50;99.90;;;;;;4146984;28;20088;-61
2023/05/05 00:55:55;;;;;;;5.33;3.43;;;8.50;99.90;;;;;;4137181;28;20380;-60
2023/05/05 00:57:57;;;;;;;5.30;3.90;;;8.50;99.90;;;;;;4155601;28;20030;-60
2023/05/05 00:59:59;;;;;;;9.50;4.40;;;8.40;99.90;;;;;;4160327;28;20079;-56
2023/05/05 01:02:01;;;;;;;4.77;3.47;;;8.40;99.90;;;;;;4163034;28;20067;-63
2023/05/05 01:04:02;;;;;;;5.47;4.00;;;8.40;99.90;;;;;;4163695;28;20029;-63
2023/05/05 01:06:14;;;;;;;4.87;3.47;;;8.40;99.90;;;;;;4162584;28;20111;-64
2023/05/05 01:08:37;;;;;;;6.23;3.40;;;8.50;99.90;;;;;;4163979;28;20038;-67
2023/05/05 01:10:45;;;;;;;5.53;3.73;;;8.50;99.90;;;;;;4163052;28;20921;-69
2023/05/05 01:13:14;;;;;;;6.57;3.67;;;8.50;99.90;;;;;;4164089;28;20022;-66
2023/05/05 01:15:32;;;;;;;7.50;3.87;;;8.50;99.90;;;;;;4162989;28;20075;-58
2023/05/05 01:17:58;;;;;;;5.63;3.30;;;8.50;99.90;;;;;;4163629;28;20041;-65
2023/05/05 01:20:09;;;;;;;6.30;3.87;;;8.50;99.90;;;;;;4162465;28;20060;-58
2023/05/05 01:22:13;;;;;;;7.97;3.47;;;8.40;99.90;;;;;;4163790;28;20091;-69
2023/05/05 01:24:29;;;;;;;8.83;3.90;;;8.40;99.90;;;;;;4162931;28;20614;-67
2023/05/05 01:26:58;;;;;;;5.10;3.60;;;8.30;99.90;;;;;;4163989;28;20045;-68
2023/05/05 01:29:06;;;;;;;9.63;4.17;;;8.30;99.90;;;;;;4162649;28;20041;-66
2023/05/05 01:31:38;;;;;;;7.47;3.33;;;8.30;99.90;;;;;;4163745;28;20420;-56
2023/05/05 01:33:46;;;;;;;6.60;3.70;;;8.20;99.90;;;;;;4150682;28;20071;-59
2023/05/05 01:35:56;;;;;;;9.23;4.53;;;8.20;99.90;;;;;;4150551;28;20033;-65
2023/05/05 01:38:21;;;;;;;11.35;3.58;;;8.20;99.90;;;;;;4146875;28;20022;-64
2023/05/05 01:40:26;;;;;;;6.47;3.00;;;8.20;99.90;;;;;;4146725;28;20076;-57
2023/05/05 01:42:29;;;;;;;3.93;3.47;;;8.10;99.90;;;;;;4146514;28;20042;-58
2023/05/05 01:44:35;;;;;;;7.77;4.33;;;8.10;99.90;;;;;;4146336;28;20368;-68
2023/05/05 01:46:36;;;;;;;6.67;3.40;;;8.00;99.90;;;;;;4146121;28;20029;-66
2023/05/05 01:48:38;;;;;;;4.87;3.63;;;7.90;99.90;;;;;;4146905;28;20505;-56
2023/05/05 01:50:41;;;;;;;4.13;3.00;;;7.80;99.90;;;;;;4146024;28;20577;-58
2023/05/05 01:52:44;;;;;;;5.57;3.33;;;7.70;99.90;;;;;;4152795;28;20034;-68
2023/05/05 01:54:46;;;;;;;4.50;3.40;;;7.70;99.90;;;;;;4157686;28;20084;-57
2023/05/05 01:56:48;;;;;;;4.77;3.00;;;7.70;99.90;;;;;;4159403;28;20038;-58
2023/05/05 01:58:50;;;;;;;5.73;3.10;;;7.70;99.90;;;;;;4162292;28;20543;-69
2023/05/05 02:00:55;;;;;;;4.10;3.07;;;7.70;99.90;;;;;;4159946;28;20025;-67
2023/05/05 02:02:58;;;;;;;4.70;3.27;;;7.70;99.90;;;;;;4158906;28;20551;-59
2023/05/05 02:05:01;;;;;;;4.03;3.33;;;7.70;99.90;;;;;;4163375;28;20363;-65
2023/05/05 02:07:03;;;;;;;5.43;3.23;;;7.70;99.90;;;;;;4149727;28;20441;-58
2023/05/05 02:09:07;;;;;;;6.57;3.00;;;7.70;99.90;;;;;;4148952;28;20540;-59
2023/05/05 02:11:10;;;;;;;3.73;3.17;;;7.70;99.90;;;;;;4145695;28;20049;-62
2023/05/05 02:13:12;;;;;;;6.60;3.37;;;7.70;99.90;;;;;;4146548;28;20122;-68
2023/05/05 02:15:15;;;;;;;6.07;4.00;;;7.70;99.90;;;;;;4145730;28;20096;-62
2023/05/05 02:17:18;;;;;;;4.93;3.93;;;7.70;99.90;;;;;;4146057;28;20030;-58
2023/05/05 02:19:29;;;;;;;4.97;3.40;;;7.70;99.90;;;;;;4146040;28;20034;-59
2023/05/05 02:21:32;;;;;;;6.03;3.67;;;7.70;99.90;;;;;;4145723;28;20030;-60
2023/05/05 02:23:35;;;;;;;3.03;2.50;;;7.70;99.90;;;;;;4145368;28;20556;-65
2023/05/05 02:25:40;;;;;;;7.43;2.70;;;7.70;99.90;;;;;;4145705;28;20080;-64
2023/05/05 02:27:44;;;;;;;7.30;3.87;;;7.70;99.90;;;;;;4146234;28;20056;-60
2023/05/05 02:29:49;;;;;;;7.70;3.73;;;7.60;99.90;;;;;;4145994;28;20068;-64
2023/05/05 02:31:53;;;;;;;8.90;4.50;;;7.60;99.90;;;;;;4162449;28;20155;-65
2023/05/05 02:33:56;;;;;;;9.27;4.77;;;7.50;99.90;;;;;;4159461;28;20425;-69
2023/05/05 02:36:09;;;;;;;7.93;5.00;;;7.50;99.90;;;;;;4162221;28;20041;-62
2023/05/05 02:38:16;;;;;;;9.50;5.33;;;7.50;99.90;;;;;;4155048;28;20100;-65
2023/05/05 02:40:21;;;;;;;8.87;5.50;;;7.40;99.90;;;;;;4146565;28;20030;-68
2023/05/05 02:42:31;;;;;;;11.03;5.20;;;7.40;99.90;;;;;;4161496;28;20025;-67
2023/05/05 02:44:33;;;;;;;10.10;5.50;;;7.40;99.90;;;;;;4162586;28;20045;-58
2023/05/05 02:46:36;;;;;;;7.23;5.43;;;7.40;99.90;;;;;;4161256;28;20035;-57
2023/05/05 02:48:37;;;;;;;9.50;5.90;;;7.40;99.90;;;;;;4162266;28;20029;-57
2023/05/05 02:50:39;;;;;;;11.17;5.67;;;7.40;99.90;;;;;;4160844;28;20107;-53
2023/05/05 02:52:40;;;;;;;9.83;6.10;;;7.40;99.90;;;;;;4160724;28;20444;-58
2023/05/05 02:54:41;;;;;;;11.33;5.57;;;7.40;99.90;;;;;;4161199;28;20072;-56
2023/05/05 02:56:50;;;;;;;13.87;5.50;;;7.40;99.90;;;;;;4162558;28;20030;-56
2023/05/05 02:59:00;;;;;;;11.47;5.63;;;7.40;99.90;;;;;;4161284;28;20456;-57
2023/05/05 03:01:15;;;;;;;9.02;6.43;;;7.40;99.90;;;;;;4145085;28;20042;-60
2023/05/05 03:03:16;;;;;;;10.83;5.00;;;7.40;99.90;;;;;;4159232;28;20107;-65
2023/05/05 03:05:21;;;;;;;9.20;4.93;;;7.50;99.90;;;;;;4147993;28;20022;-65
2023/05/05 03:07:27;;;;;;;11.90;6.37;;;7.40;99.90;;;;;;4145503;28;20034;-65
2023/05/05 03:09:48;;;;;;;9.90;6.67;;;7.40;99.90;;;;;;4146894;28;20541;-68
2023/05/05 03:12:02;;;;;;;9.23;4.88;;;7.40;99.90;;;;;;4147761;28;20053;-69
2023/05/05 03:14:08;;;;;;;6.63;3.90;;;7.30;99.90;;;;;;4151810;28;20025;-55
2023/05/05 03:16:11;;;;;;;6.03;4.53;;;7.40;99.90;;;;;;4144984;28;20039;-60
2023/05/05 03:18:14;;;;;;;5.90;4.33;;;7.60;99.90;;;;;;4145566;28;20041;-55
2023/05/05 03:20:16;;;;;;;5.23;3.20;;;7.70;99.90;;;;;;4144731;28;20736;-58
2023/05/05 03:22:17;;;;;;;8.50;3.27;;;7.90;99.90;;;;;;4144880;28;20042;-68
2023/05/05 03:24:19;;;;;;;4.50;3.13;;;8.00;99.90;;;;;;4144997;28;20440;-68
2023/05/05 03:26:21;;;;;;;6.23;3.37;;;8.20;99.90;;;;;;4144669;28;20045;-58
2023/05/05 03:28:22;;;;;;;6.53;3.07;;;8.30;99.90;;;;;;4145239;28;20030;-68
2023/05/05 03:30:23;;;;;;;5.67;3.30;;;8.40;99.90;;;;;;4145661;28;20046;-67
2023/05/05 03:32:25;;;;;;;8.40;3.50;;;8.60;99.90;;;;;;4146062;28;20548;-69
2023/05/05 03:34:26;;;;;;;9.23;3.77;;;8.80;99.90;;;;;;4150416;28;20033;-70
2023/05/05 03:36:27;;;;;;;6.30;3.07;;;9.10;99.90;;;;;;4149942;28;20100;-66
2023/05/05 03:38:28;;;;;;;6.57;3.63;;;9.30;99.90;;;;;;4144741;28;20080;-67
2023/05/05 03:40:29;;;;;;;7.03;3.60;;;9.60;99.90;;;;;;4155600;28;20083;-59
2023/05/05 03:42:30;;;;;;;10.17;3.17;;;9.90;99.90;;;;;;4156231;28;20042;-67
2023/05/05 03:44:31;;;;;;;11.03;2.80;;;10.20;99.90;;;;;;4159707;28;20041;-67
2023/05/05 03:46:32;;;;;;;4.73;3.03;;;10.50;99.90;;;;;;4147165;28;20042;-56
2023/05/05 03:48:34;;;;;;;3.30;2.47;;;11.00;99.90;;;;;;4145467;28;20482;-70
2023/05/05 03:50:35;;;;;;;5.90;2.80;;;11.30;99.90;;;;;;4156763;28;20103;-68
2023/05/05 03:52:36;;;;;;;11.57;3.43;;;11.70;99.90;;;;;;4161328;28;20041;-69
2023/05/05 03:54:37;;;;;;;4.47;3.23;;;12.10;99.90;;;;;;4160567;28;20029;-59
2023/05/05 03:56:39;;;;;;;5.13;3.00;;;12.40;99.90;;;;;;4160131;28;20033;-61
2023/05/05 03:58:40;;;;;;;5.57;2.90;;;12.70;99.90;;;;;;4158451;28;20029;-69
2023/05/05 04:00:42;;;;;;;14.67;3.60;;;13.10;99.90;;;;;;4160743;28;20029;-65
2023/05/05 04:02:43;;;;;;;11.27;4.17;;;13.50;99.90;;;;;;4160389;28;20034;-72
2023/05/05 04:04:44;;;;;;;12.23;3.57;;;13.60;99.90;;;;;;4160401;28;20545;-70
2023/05/05 04:06:45;;;;;;;12.70;3.60;;;13.40;99.90;;;;;;4161677;28;20026;-69
2023/05/05 04:08:46;;;;;;;12.83;3.67;;;13.20;99.90;;;;;;4160495;28;20022;-58
2023/05/05 04:10:47;;;;;;;7.60;3.97;;;12.80;99.90;;;;;;4155496;28;20037;-57
2023/05/05 04:12:48;;;;;;;10.57;3.93;;;12.30;99.90;;;;;;4159651;28;20088;-62
2023/05/05 04:14:50;;;;;;;6.90;3.40;;;11.90;99.90;;;;;;4147947;28;20033;-60
2023/05/05 04:16:51;;;;;;;7.70;4.00;;;11.70;99.90;;;;;;4146820;28;20026;-59
2023/05/05 04:18:52;;;;;;;6.27;3.40;;;11.50;99.90;;;;;;4150922;28;20050;-58
2023/05/05 04:20:53;;;;;;;6.07;3.43;;;11.30;99.90;;;;;;4160633;28;20191;-68
2023/05/05 04:22:54;;;;;;;9.17;3.90;;;11.20;99.90;;;;;;4164208;28;20041;-69
2023/05/05 04:24:55;;;;;;;8.03;4.17;;;11.10;99.90;;;;;;4155470;28;20477;-59
2023/05/05 04:26:56;;;;;;;11.70;5.00;;;11.10;99.90;;;;;;4166487;28;20037;-68
2023/05/05 04:28:57;;;;;;;8.63;4.67;;;11.10;99.90;;;;;;4160208;28;20022;-69
2023/05/05 04:30:59;;;;;;;14.00;4.90;;;11.00;99.90;;;;;;4162815;28;20087;-70
2023/05/05 04:33:01;;;;;;;7.43;4.57;;;10.90;99.90;;;;;;4163496;28;20045;-70
2023/05/05 04:35:02;;;;;;;10.43;5.07;;;10.70;99.90;;;;;;4159734;28;20030;-68
2023/05/05 04:37:03;;;;;;;14.73;4.83;;;10.40;99.90;;;;;;4160864;28;20072;-70
2023/05/05 04:39:05;;;;;;;8.57;4.00;;;10.20;99.90;;;;;;4161479;28;20079;-69
2023/05/05 04:41:06;;;;;;;7.87;4.20;;;10.00;99.90;;;;;;4162434;28;20053;-57
2023/05/05 04:43:08;;;;;;;8.50;4.43;;;9.90;99.90;;;;;;4161404;28;20037;-65
2023/05/05 04:45:09;;;;;;;9.30;4.90;;;9.90;99.90;;;;;;4155022;28;20050;-57
2023/05/05 04:47:10;;;;;;;8.83;4.27;;;9.90;99.90;;;;;;4159203;28;20433;-72
2023/05/05 04:49:11;;;;;;;7.80;3.47;;;9.90;99.90;;;;;;4163711;28;20099;-71
2023/05/05 04:51:13;;;;;;;6.07;4.10;;;10.00;99.90;;;;;;4151240;28;20065;-72
2023/05/05 04:53:14;;;;;;;9.57;3.83;;;10.60;99.90;;;;;;4148187;28;20045;-61
2023/05/05 04:55:15;;;;;;;11.67;4.47;;;11.50;99.90;;;;;;4162516;28;20033;-71
2023/05/05 04:57:16;;;;;;;6.33;3.53;;;12.30;99.90;;;;;;4162955;28;20049;-73
2023/05/05 04:59:17;;;;;;;20.20;4.27;;;13.00;99.90;;;;;;4150958;28;20111;-59
2023/05/05 05:01:18;;;;;;;11.03;3.50;;;13.50;99.90;;;;;;4147211;28;20046;-74
2023/05/05 05:03:19;;;;;;;14.70;4.70;;;14.10;99.90;;;;;;4147861;28;20104;-58
2023/05/05 05:05:21;;;;;;;14.97;4.60;;;14.50;99.90;;;;;;4145957;28;20096;-74
2023/05/05 05:07:22;;;;;;;21.63;4.70;;;14.90;99.90;;;;;;4147507;28;20156;-59
2023/05/05 05:09:23;;;;;;;9.60;4.50;;;15.20;99.90;;;;;;4146428;28;20380;-73
2023/05/05 05:11:25;;;;;;;9.07;4.67;;;15.40;99.90;;;;;;4129423;28;20034;-73
2023/05/05 05:13:26;;;;;;;11.03;4.33;;;15.70;99.90;;;;;;4146179;28;20030;-57
2023/05/05 05:15:27;;;;;;;11.33;5.20;;;16.30;99.90;;;;;;4146828;28;20050;-70
2023/05/05 05:17:29;;;;;;;6.93;4.00;;;16.90;99.90;;;;;;4145720;28;20057;-72
2023/05/05 05:19:30;;;;;;;8.25;3.97;;;16.80;99.90;;;;;;4147253;28;20057;-57
2023/05/05 05:21:31;;;;;;;7.95;4.38;;;16.70;99.90;;;;;;4145780;28;20080;-58
2023/05/05 05:23:32;;;;;;;13.43;4.90;;;16.40;99.90;;;;;;4147134;28;20064;-73
2023/05/05 05:25:33;;;;;;;10.63;4.55;;;16.10;99.90;;;;;;4146303;28;20030;-63
2023/05/05 05:27:34;;;;;;;9.18;3.78;;;16.00;99.90;;;;;;4146646;28;20034;-72
2023/05/05 05:29:36;;;;;;;8.60;4.53;;;15.90;99.90;;;;;;4145036;28;20100;-73
2023/05/05 05:31:38;;;;;;;16.52;5.53;;;15.80;99.90;;;;;;4145591;28;20034;-73
2023/05/05 05:33:39;;;;;;;15.02;5.75;;;15.60;99.90;;;;;;4146815;28;20077;-59
2023/05/05 05:35:40;;;;;;;12.90;4.97;;;15.50;99.90;;;;;;4145762;28;20040;-59
2023/05/05 05:37:41;;;;;;;13.02;5.50;;;15.10;99.90;;;;;;4147025;28;20030;-71
2023/05/05 05:39:42;;;;;;;17.58;6.40;;;14.80;99.90;;;;;;4145560;28;20096;-59
2023/05/05 05:41:44;;;;;;;14.15;5.85;;;14.40;99.90;;;;;;4147194;28;20034;-69
2023/05/05 05:43:45;;;;;;;14.00;6.22;;;14.20;99.90;;;;;;4145391;28;20042;-55
2023/05/05 05:45:46;;;;;;;17.25;5.60;;;13.90;99.90;;;;;;4146924;28;20434;-59
2023/05/05 05:47:47;;;;;;;15.82;6.05;;;13.50;99.90;;;;;;4145301;28;20034;-61
2023/05/05 05:49:49;;;;;;;12.40;5.63;;;13.30;99.90;;;;;;4146322;28;20486;-64
2023/05/05 05:51:50;;;;;;;15.65;5.50;;;13.20;99.90;;;;;;4145545;28;20056;-72
2023/05/05 05:53:52;;;;;;;12.52;6.25;;;13.20;99.90;;;;;;4146253;28;20449;-67
2023/05/05 05:55:53;;;;;;;14.27;6.00;;;13.10;99.90;;;;;;4145190;28;20073;-60
2023/05/05 05:57:54;;;;;;;14.93;6.60;;;12.90;99.90;;;;;;4146094;28;20076;-65
2023/05/05 05:59:55;;;;;;;11.50;6.10;;;13.00;99.90;;;;;;4145620;28;20085;-57
2023/05/05 06:01:56;;;;;;;14.27;6.33;;;13.10;99.90;;;;;;4145841;28;20021;-61
2023/05/05 06:03:57;;;;;;;11.70;6.77;;;13.30;99.90;;;;;;4146279;28;20034;-58
2023/05/05 06:05:58;;;;;;;17.47;6.77;;;13.20;99.90;;;;;;4145545;28;20072;-57
2023/05/05 06:07:59;;;;;;;20.77;6.73;;;13.40;99.90;;;;;;4146172;28;20046;-73
2023/05/05 06:10:00;;;;;;;20.27;5.90;;;13.80;99.90;;;;;;4145184;28;20038;-55
2023/05/05 06:12:02;;;;;;;15.20;6.23;;;14.30;99.90;;;;;;4145993;28;20038;-69
2023/05/05 06:14:03;;;;;;;14.97;5.93;;;14.70;99.90;;;;;;4145173;28;20308;-58
2023/05/05 06:16:05;;;;;;;20.60;6.47;;;15.10;99.90;;;;;;4146339;28;20026;-61
2023/05/05 06:18:06;;;;;;;12.75;5.32;;;15.40;99.90;;;;;;4144965;28;20132;-57
2023/05/05 06:20:07;;;;;;;14.13;6.07;;;15.70;99.90;;;;;;4146274;28;20026;-60
2023/05/05 06:22:09;;;;;;;16.67;5.83;;;16.00;99.90;;;;;;4145139;28;20096;-58
2023/05/05 06:24:10;;;;;;;11.70;5.38;;;16.50;99.90;;;;;;4146279;28;20084;-66
2023/05/05 06:26:11;;;;;;;11.52;5.57;;;17.10;99.90;;;;;;4145281;28;20494;-73
2023/05/05 06:28:12;;;;;;;10.82;5.38;;;17.80;99.90;;;;;;4145321;28;20072;-59
2023/05/05 06:30:13;;;;;;;9.00;5.03;;;18.40;99.90;;;;;;4145486;28;20080;-63
2023/05/05 06:32:14;;;;;;;12.95;5.13;;;18.70;99.90;;;;;;4145275;28;20030;-59
2023/05/05 06:34:15;;;;;;;10.90;5.13;;;18.70;99.90;;;;;;4145269;28;20038;-59
2023/05/05 06:36:16;;;;;;;10.23;4.60;;;18.10;99.90;;;;;;4144897;28;20038;-58
2023/05/05 06:38:18;;;;;;;13.77;5.60;;;17.60;99.90;;;;;;4145578;28;20045;-59
2023/05/05 06:40:19;;;;;;;12.95;4.70;;;16.90;99.90;;;;;;4144920;28;20073;-68
2023/05/05 06:42:20;;;;;;;11.57;5.53;;;16.70;99.90;;;;;;4144902;28;20046;-59
2023/05/05 06:44:21;;;;;;;12.85;5.63;;;16.50;99.90;;;;;;4144732;28;20087;-58
2023/05/05 06:46:23;;;;;;;14.73;5.13;;;16.50;99.90;;;;;;4145888;28;20045;-61
2023/05/05 06:48:24;;;;;;;12.80;5.70;;;16.80;99.90;;;;;;4144446;28;20034;-59
2023/05/05 06:50:25;;;;;;;14.60;5.60;;;16.50;99.90;;;;;;4145269;28;20092;-61
2023/05/05 06:52:26;;;;;;;8.85;5.03;;;16.20;99.90;;;;;;4144509;28;20042;-55
2023/05/05 06:54:27;;;;;;;6.80;4.68;;;16.40;99.90;;;;;;4145021;28;20099;-72
2023/05/05 06:56:29;;;;;;;8.52;5.15;;;17.00;99.90;;;;;;4144162;28;20076;-57
2023/05/05 06:58:30;;;;;;;9.68;5.10;;;17.20;99.90;;;;;;4144799;28;20037;-59
2023/05/05 07:00:32;;;;;;;11.40;5.07;;;17.20;99.90;;;;;;4144348;28;20038;-59
2023/05/05 07:02:33;;;;;;;10.85;5.20;;;16.90;99.90;;;;;;4144611;28;20045;-59
2023/05/05 07:04:34;;;;;;;14.05;5.35;;;16.80;99.90;;;;;;4144955;28;20034;-58
2023/05/05 07:06:35;;;;;;;9.48;4.80;;;16.70;99.90;;;;;;4144714;28;20034;-58
2023/05/05 07:08:36;;;;;;;7.57;5.07;;;16.70;99.90;;;;;;4145363;28;20603;-60
2023/05/05 07:10:37;;;;;;;10.57;4.70;;;16.50;99.90;;;;;;4144359;28;20100;-59
2023/05/05 07:12:39;;;;;;;9.98;4.78;;;16.40;99.90;;;;;;4145534;28;20108;-65
2023/05/05 07:14:40;;;;;;;9.40;4.72;;;16.50;99.90;;;;;;4144703;28;20044;-58
2023/05/05 07:16:41;;;;;;;14.00;4.97;;;16.80;99.90;;;;;;4145128;28;20449;-57
2023/05/05 07:18:42;;;;;;;5.57;4.07;;;16.90;99.90;;;;;;4143483;28;20556;-69
2023/05/05 07:20:43;;;;;;;11.50;4.45;;;16.90;99.90;;;;;;4145086;28;20076;-57
2023/05/05 07:22:45;;;;;;;6.78;3.72;;;16.80;99.90;;;;;;4144363;28;20084;-60
2023/05/05 07:24:46;;;;;;;6.47;4.30;;;17.10;99.90;;;;;;4145287;28;20099;-59
2023/05/05 07:26:47;;;;;;;6.72;3.70;;;17.00;99.90;;;;;;4144123;28;20030;-59
2023/05/05 07:28:50;;;;;;;5.47;3.40;;;17.60;99.90;;;;;;4144951;28;20129;-59
2023/05/05 07:30:51;;;;;;;4.13;2.60;;;17.70;99.90;;;;;;4144444;28;20564;-59
2023/05/05 07:32:53;;;;;;;6.18;4.15;;;17.60;99.90;;;;;;4144479;28;20801;-58
2023/05/05 07:34:54;;;;;;;7.32;3.67;;;17.40;99.90;;;;;;4144834;28;20466;-57
2023/05/05 07:36:56;;;;;;;3.67;2.92;;;17.20;99.90;;;;;;4143773;28;20092;-66
2023/05/05 07:38:57;;;;;;;3.00;2.70;;;17.40;99.90;;;;;;4144945;28;20046;-58
2023/05/05 07:40:58;;;;;;;3.72;2.72;;;17.40;99.90;;;;;;4143574;28;20062;-72
2023/05/05 07:43:00;;;;;;;7.00;2.78;;;17.30;99.90;;;;;;4144493;28;20045;-58
2023/05/05 07:45:01;;;;;;;3.80;2.05;;;17.20;99.90;;;;;;4144093;28;20085;-59
2023/05/05 07:47:02;;;;;;;2.90;2.05;;;16.90;99.90;;;;;;4144587;28;20046;-65
2023/05/05 07:49:03;;;;;;;6.20;1.73;;;16.70;99.90;;;;;;4143459;28;20453;-59
2023/05/05 07:51:04;;;;;;;2.35;1.25;;;17.00;99.90;;;;;;4144934;28;20092;-59
2023/05/05 07:53:06;;;;;;;2.10;1.00;;;17.00;99.90;;;;;;4143087;28;20463;-58
2023/05/05 07:55:07;;;;;;;4.38;1.40;;;17.30;99.90;;;;;;4145139;28;20108;-59
2023/05/05 07:57:08;;;;;;;4.70;1.33;;;17.60;99.90;;;;;;4143944;28;20080;-63
2023/05/05 07:59:10;;;;;;;3.08;1.63;;;17.50;99.90;;;;;;4144765;28;20116;-59
2023/05/05 08:01:12;;;;;;;4.75;1.52;;;17.40;99.90;;;;;;4144033;28;20425;-61
2023/05/05 08:03:13;;;;;;;3.53;1.33;;;17.10;99.90;;;;;;4144161;28;20029;-59
2023/05/05 08:05:14;;;;;;;1.45;0.90;;;16.90;99.90;;;;;;4126777;28;20093;-66
2023/05/05 08:07:15;;;;;;;1.27;1.05;;;17.00;99.90;;;;;;4143891;28;20038;-60
2023/05/05 08:09:16;;;;;;;1.35;0.60;;;17.10;99.90;;;;;;4144806;28;20430;-59
2023/05/05 08:11:18;;;;;;;3.13;0.90;;;17.10;99.90;;;;;;4143056;28;20473;-59
2023/05/05 08:13:19;;;;;;;4.07;1.17;;;17.20;99.90;;;;;;4144332;28;20087;-58
2023/05/05 08:15:20;;;;;;;3.00;1.10;;;17.20;99.90;;;;;;4143535;28;20088;-62
2023/05/05 08:17:24;;;;;;;3.55;1.27;;;17.30;99.90;;;;;;4144260;28;20064;-58
2023/05/05 08:19:25;;;;;;;1.20;1.10;;;17.40;99.90;;;;;;4143812;28;20022;-59
2023/05/05 08:21:27;;;;;;;1.17;0.70;;;17.40;99.90;;;;;;4144336;28;20152;-59
2023/05/05 08:23:28;;;;;;;1.27;1.15;;;17.60;99.90;;;;;;4143584;28;20072;-57
2023/05/05 08:25:29;;;;;;;1.13;0.65;;;17.50;99.90;;;;;;4144684;28;20399;-58
2023/05/05 08:27:34;;;;;;;1.80;0.90;;;17.50;99.90;;;;;;4143628;28;20057;-56
2023/05/05 08:29:35;;;;;;;2.05;0.90;;;17.60;99.90;;;;;;4144609;28;20162;-59
2023/05/05 08:31:36;;;;;;;1.70;1.20;;;17.60;99.90;;;;;;4143625;28;20034;-58
2023/05/05 08:33:37;;;;;;;1.00;0.88;;;17.50;99.90;;;;;;4144103;28;20081;-59
2023/05/05 08:35:38;;;;;;;1.40;0.98;;;17.50;99.90;;;;;;4143339;28;20034;-55
2023/05/05 08:37:39;;;;;;;6.30;1.23;;;17.60;99.90;;;;;;4143470;28;20446;-58
2023/05/05 08:39:40;;;;;;;3.90;1.05;;;17.70;99.90;;;;;;4143862;28;20063;-59
2023/05/05 08:41:41;;;;;;;2.08;1.00;;;17.90;99.90;;;;;;4143691;28;20038;-58
2023/05/05 08:43:44;;;;;;;2.58;0.98;;;17.80;99.90;;;;;;4144559;28;20033;-59
2023/05/05 08:45:46;;;;;;;1.20;1.08;;;17.60;99.90;;;;;;4142975;28;21338;-58
2023/05/05 08:47:47;;;;;;;2.63;1.17;;;17.70;99.90;;;;;;4144268;28;20100;-57
2023/05/05 08:49:48;;;;;;;1.17;0.98;;;17.60;99.90;;;;;;4142758;28;20050;-58
2023/05/05 08:51:52;;;;;;;1.42;0.80;;;17.70;99.90;;;;;;4144289;28;20494;-60
2023/05/05 08:53:53;;;;;;;0.85;0.80;;;17.80;99.90;;;;;;4142658;28;20068;-56
2023/05/05 08:55:58;;;;;;;2.47;0.88;;;17.90;99.90;;;;;;4143449;28;20100;-57
2023/05/05 08:58:02;;;;;;;2.95;0.95;;;18.00;99.90;;;;;;4142718;28;20050;-56
2023/05/05 09:00:04;;;;;;;2.88;1.48;;;18.10;99.90;;;;;;4144351;28;20025;-61
2023/05/05 09:02:07;;;;;;;1.80;0.60;;;18.00;99.90;;;;;;4143123;28;20030;-59
2023/05/05 09:04:09;;;;;;;2.28;0.82;;;17.90;99.90;;;;;;4144596;28;20520;-59
2023/05/05 09:06:11;;;;;;;0.55;0.55;;;18.10;99.90;;;;;;4145812;28;20046;-58
2023/05/05 09:08:12;;;;;;;5.68;0.90;;;18.00;99.90;;;;;;4146448;28;20042;-59
2023/05/05 09:10:13;;;;;;;1.45;0.93;;;18.10;99.90;;;;;;4146177;28;20085;-55
2023/05/05 09:12:16;;;;;;;1.27;0.70;;;18.10;99.80;;;;;;4146355;28;20034;-59
2023/05/05 09:14:17;;;;;;;6.00;0.65;;;17.90;99.90;;;;;;4146747;28;20021;-57
2023/05/05 09:16:19;;;;;;;2.80;1.48;;;18.00;99.90;;;;;;4145939;28;20022;-56
2023/05/05 09:18:20;;;;;;;1.30;0.98;;;18.00;99.90;;;;;;4146275;28;20050;-58
2023/05/05 09:20:21;;;;;;;0.85;0.57;;;18.00;99.90;;;;;;4145835;28;20046;-69
2023/05/05 09:22:32;;;;;;;1.13;0.90;;;17.90;99.90;;;;;;4146817;28;20509;-58
2023/05/05 09:24:33;;;;;;;2.03;1.17;;;18.00;99.60;;;;;;4145860;28;20809;-58
2023/05/05 09:26:39;;;;;;;2.28;0.80;;;18.00;99.90;;;;;;4147055;28;20037;-58
2023/05/05 09:28:51;;;;;;;0.93;0.77;;;18.10;99.70;;;;;;4145579;28;20026;-56
2023/05/05 09:30:52;;;;;;;0.95;0.60;;;18.20;99.10;;;;;;4146743;28;20058;-59
2023/05/05 09:32:54;;;;;;;2.35;0.65;;;18.20;99.10;;;;;;4145595;28;20080;-60
2023/05/05 09:34:59;;;;;;;9.68;1.42;;;18.40;99.10;;;;;;4146620;28;20041;-58
2023/05/05 09:37:00;;;;;;;1.02;0.93;;;18.30;98.70;;;;;;4145559;28;20091;-58
2023/05/05 09:39:06;;;;;;;1.35;0.85;;;18.10;98.90;;;;;;4147073;28;20441;-57
2023/05/05 09:41:07;;;;;;;1.20;0.60;;;18.10;98.90;;;;;;4145129;28;20173;-58
2023/05/05 09:43:08;;;;;;;3.80;0.70;;;18.00;98.70;;;;;;4146697;28;20034;-61
2023/05/05 09:45:18;;;;;;;0.90;0.65;;;18.00;98.60;;;;;;4145755;28;20029;-71
2023/05/05 09:47:20;;;;;;;1.35;0.75;;;18.00;97.80;;;;;;4146454;28;20632;-67
2023/05/05 09:49:25;;;;;;;1.23;0.80;;;18.20;98.40;;;;;;4128156;28;20030;-58
2023/05/05 09:51:30;;;;;;;0.60;0.50;;;18.20;97.90;;;;;;4128377;28;20046;-60
2023/05/05 09:53:40;;;;;;;14.30;5.15;;;18.10;97.80;;;;;;4146088;28;20026;-70
2023/05/05 09:55:54;;;;;;;1.65;0.80;;;18.20;98.10;;;;;;4145764;28;20041;-59
2023/05/05 09:57:57;;;;;;;1.17;0.60;;;18.40;97.20;;;;;;4145821;28;20080;-57
2023/05/05 10:00:00;;;;;;;2.47;0.70;;;18.50;97.40;;;;;;4145228;28;20544;-60
2023/05/05 10:02:12;;;;;;;1.40;0.55;;;18.50;97.00;;;;;;4145357;28;20046;-62
2023/05/05 10:04:29;;;;;;;1.23;0.50;;;18.30;97.10;;;;;;4145153;28;20125;-59
2023/05/05 10:06:43;;;;;;;5.85;1.15;;;18.20;97.00;;;;;;4145487;28;20123;-57
2023/05/05 10:08:44;;;;;;;1.77;0.75;;;18.20;97.00;;;;;;4145689;28;20088;-61
2023/05/05 10:10:51;;;;;;;1.98;1.17;;;18.30;97.20;;;;;;4127923;28;20224;-60
2023/05/05 10:12:53;;;;;;;1.98;0.93;;;18.20;97.00;;;;;;4145607;28;20041;-70
2023/05/05 10:14:55;;;;;;;0.98;0.85;;;18.10;97.30;;;;;;4145637;28;20057;-56
2023/05/05 10:16:59;;;;;;;2.72;0.90;;;18.10;97.20;;;;;;4144354;28;20454;-64
2023/05/05 10:19:03;;;;;;;2.17;0.90;;;18.20;97.20;;;;;;4145715;28;20042;-57
2023/05/05 10:21:05;;;;;;;1.77;1.10;;;18.20;96.90;;;;;;4144961;28;20430;-59
2023/05/05 10:23:09;;;;;;;0.60;0.60;;;18.20;97.20;;;;;;4146487;28;20436;-58
2023/05/05 10:25:13;;;;;;;1.48;1.17;;;18.20;97.20;;;;;;4144956;28;20091;-59
2023/05/05 10:27:23;;;;;;;3.70;1.00;;;18.10;97.20;;;;;;4146419;28;20088;-68
2023/05/05 10:29:44;;;;;;;1.25;1.00;;;18.10;97.00;;;;;;4144755;28;20152;-71
2023/05/05 10:31:49;;;;;;;1.20;1.00;;;18.00;97.20;;;;;;4128424;28;20058;-60
2023/05/05 10:34:02;;;;;;;5.00;1.35;;;18.10;97.00;;;;;;4144875;28;20096;-72
2023/05/05 10:36:05;;;;;;;1.13;0.75;;;18.20;96.60;;;;;;4146051;28;20426;-64
2023/05/05 10:38:08;;;;;;;3.05;1.30;;;18.20;96.60;;;;;;4144888;28;20080;-60
2023/05/05 10:40:11;;;;;;;1.48;1.00;;;18.20;96.60;;;;;;4145264;28;20088;-59
2023/05/05 10:42:13;;;;;;;1.15;0.80;;;18.20;96.40;;;;;;4144363;28;20073;-58